sensor_id;sensor_type;location;lat;lon;timestamp;pressure;altitude;pressure_sealevel;temperature;humidity
11114;BME280;5610;52.154;9.198;2022-11-15T00:00:39;100244.09;;;9.02;100.00
11114;BME280;5610;52.154;9.198;2022-11-15T00:03:43;100257.50;;;9.15;100.00
11114;BME280;5610;52.154;9.198;2022-11-15T00:06:47;100241.66;;;9.27;100.00
11114;BME280;5610;52.154;9.198;2022-11-15T00:09:51;100257.69;;;9.40;100.00
11114;BME280;5610;52.154;9.198;2022-11-15T00:12:55;100260.63;;;9.50;100.00
11114;BME280;5610;52.154;9.198;2022-11-15T00:16:01;100261.88;;;9.58;100.00
11114;BME280;5610;52.154;9.198;2022-11-15T00:19:05;100250.81;;;9.64;100.00
11114;BME280;5610;52.154;9.198;2022-11-15T00:22:09;100251.94;;;9.75;100.00
11114;BME280;5610;52.154;9.198;2022-11-15T00:25:14;100253.16;;;9.83;100.00
11114;BME280;5610;52.154;9.198;2022-11-15T00:28:18;100246.59;;;9.89;100.00
11114;BME280;5610;52.154;9.198;2022-11-15T00:31:23;100247.78;;;9.98;100.00
11114;BME280;5610;52.154;9.198;2022-11-15T00:34:27;100241.97;;;10.05;100.00
11114;BME280;5610;52.154;9.198;2022-11-15T00:37:31;100233.56;;;10.11;100.00
11114;BME280;5610;52.154;9.198;2022-11-15T00:40:35;100233.91;;;10.19;100.00
11114;BME280;5610;52.154;9.198;2022-11-15T00:43:40;100236.31;;;10.24;100.00
11114;BME280;5610;52.154;9.198;2022-11-15T00:46:47;100234.22;;;10.29;100.00
11114;BME280;5610;52.154;9.198;2022-11-15T00:49:51;100235.91;;;10.30;100.00
11114;BME280;5610;52.154;9.198;2022-11-15T00:52:55;100230.25;;;10.35;100.00
11114;BME280;5610;52.154;9.198;2022-11-15T00:56:00;100234.22;;;10.42;100.00
11114;BME280;5610;52.154;9.198;2022-11-15T00:59:04;100226.03;;;10.45;100.00
11114;BME280;5610;52.154;9.198;2022-11-15T01:02:09;100224.97;;;10.48;100.00
11114;BME280;5610;52.154;9.198;2022-11-15T01:05:13;100224.56;;;10.54;100.00
11114;BME280;5610;52.154;9.198;2022-11-15T01:08:18;100221.47;;;10.60;100.00
11114;BME280;5610;52.154;9.198;2022-11-15T01:11:22;100215.84;;;10.64;100.00
11114;BME280;5610;52.154;9.198;2022-11-15T01:14:26;100209.31;;;10.68;100.00
11114;BME280;5610;52.154;9.198;2022-11-15T01:17:31;100208.91;;;10.75;100.00
11114;BME280;5610;52.154;9.198;2022-11-15T01:20:39;100200.69;;;10.78;100.00
11114;BME280;5610;52.154;9.198;2022-11-15T01:23:43;100211.16;;;10.81;100.00
11114;BME280;5610;52.154;9.198;2022-11-15T01:26:47;100200.06;;;10.87;100.00
11114;BME280;5610;52.154;9.198;2022-11-15T01:29:52;100192.69;;;10.90;100.00
11114;BME280;5610;52.154;9.198;2022-11-15T01:32:57;100179.38;;;10.90;100.00
11114;BME280;5610;52.154;9.198;2022-11-15T01:36:03;100170.84;;;10.85;100.00
11114;BME280;5610;52.154;9.198;2022-11-15T01:39:07;100176.69;;;10.90;100.00
11114;BME280;5610;52.154;9.198;2022-11-15T01:42:13;100176.38;;;10.95;100.00
11114;BME280;5610;52.154;9.198;2022-11-15T01:45:17;100174.69;;;10.94;100.00
11114;BME280;5610;52.154;9.198;2022-11-15T01:48:24;100168.06;;;10.99;100.00
11114;BME280;5610;52.154;9.198;2022-11-15T01:51:32;100159.13;;;11.00;100.00
11114;BME280;5610;52.154;9.198;2022-11-15T01:54:37;100158.03;;;11.03;100.00
11114;BME280;5610;52.154;9.198;2022-11-15T01:57:42;100159.53;;;11.07;100.00
11114;BME280;5610;52.154;9.198;2022-11-15T02:00:49;100154.94;;;11.09;100.00
11114;BME280;5610;52.154;9.198;2022-11-15T02:03:58;100152.03;;;11.12;100.00
11114;BME280;5610;52.154;9.198;2022-11-15T02:07:04;100156.63;;;11.10;100.00
11114;BME280;5610;52.154;9.198;2022-11-15T02:10:11;100156.31;;;11.15;100.00
11114;BME280;5610;52.154;9.198;2022-11-15T02:13:16;100154.06;;;11.21;100.00
11114;BME280;5610;52.154;9.198;2022-11-15T02:16:28;100149.59;;;11.22;100.00
11114;BME280;5610;52.154;9.198;2022-11-15T02:27:03;100149.72;;;11.08;100.00
11114;BME280;5610;52.154;9.198;2022-11-15T02:30:24;100145.13;;;11.10;100.00
11114;BME280;5610;52.154;9.198;2022-11-15T02:33:35;100152.47;;;11.06;100.00
11114;BME280;5610;52.154;9.198;2022-11-15T02:36:50;100145.22;;;11.08;100.00
11114;BME280;5610;52.154;9.198;2022-11-15T02:40:02;100145.22;;;11.08;100.00
11114;BME280;5610;52.154;9.198;2022-11-15T02:43:11;100144.69;;;11.03;100.00
11114;BME280;5610;52.154;9.198;2022-11-15T02:46:37;100143.72;;;11.04;100.00
11114;BME280;5610;52.154;9.198;2022-11-15T02:50:02;100137.78;;;11.00;100.00
11114;BME280;5610;52.154;9.198;2022-11-15T02:53:09;100142.75;;;11.05;100.00
11114;BME280;5610;52.154;9.198;2022-11-15T02:56:13;100143.84;;;11.03;100.00
11114;BME280;5610;52.154;9.198;2022-11-15T02:59:28;100137.72;;;11.13;100.00
11114;BME280;5610;52.154;9.198;2022-11-15T03:06:31;100131.78;;;11.46;100.00
11114;BME280;5610;52.154;9.198;2022-11-15T03:09:42;100131.44;;;11.75;100.00
11114;BME280;5610;52.154;9.198;2022-11-15T03:12:55;100126.72;;;11.91;100.00
11114;BME280;5610;52.154;9.198;2022-11-15T03:16:03;100134.03;;;12.00;100.00
11114;BME280;5610;52.154;9.198;2022-11-15T03:19:12;100122.97;;;12.05;100.00
11114;BME280;5610;52.154;9.198;2022-11-15T03:22:20;100123.00;;;12.16;100.00
11114;BME280;5610;52.154;9.198;2022-11-15T03:25:25;100117.09;;;12.24;100.00
11114;BME280;5610;52.154;9.198;2022-11-15T03:28:34;100122.94;;;12.29;100.00
11114;BME280;5610;52.154;9.198;2022-11-15T03:31:43;100125.59;;;12.29;100.00
11114;BME280;5610;52.154;9.198;2022-11-15T03:34:53;100123.31;;;12.35;100.00
11114;BME280;5610;52.154;9.198;2022-11-15T03:38:11;100116.53;;;12.43;100.00
11114;BME280;5610;52.154;9.198;2022-11-15T03:41:22;100119.69;;;12.48;100.00
11114;BME280;5610;52.154;9.198;2022-11-15T03:44:35;100116.44;;;12.55;100.00
11114;BME280;5610;52.154;9.198;2022-11-15T03:47:43;100113.00;;;12.53;100.00
11114;BME280;5610;52.154;9.198;2022-11-15T03:50:50;100107.78;;;12.41;100.00
11114;BME280;5610;52.154;9.198;2022-11-15T03:53:56;100105.81;;;12.31;100.00
11114;BME280;5610;52.154;9.198;2022-11-15T03:57:00;100120.13;;;12.19;100.00
11114;BME280;5610;52.154;9.198;2022-11-15T04:00:05;100121.53;;;12.12;100.00
11114;BME280;5610;52.154;9.198;2022-11-15T04:03:10;100117.53;;;12.06;100.00
11114;BME280;5610;52.154;9.198;2022-11-15T04:06:14;100121.78;;;12.09;100.00
11114;BME280;5610;52.154;9.198;2022-11-15T04:09:20;100120.94;;;12.08;100.00
11114;BME280;5610;52.154;9.198;2022-11-15T04:12:24;100116.44;;;12.09;100.00
11114;BME280;5610;52.154;9.198;2022-11-15T04:15:34;100113.44;;;12.14;100.00
11114;BME280;5610;52.154;9.198;2022-11-15T04:18:39;100117.16;;;12.11;100.00
11114;BME280;5610;52.154;9.198;2022-11-15T04:21:43;100117.47;;;12.19;100.00
11114;BME280;5610;52.154;9.198;2022-11-15T04:25:06;100127.88;;;12.22;100.00
11114;BME280;5610;52.154;9.198;2022-11-15T04:28:11;100124.50;;;12.31;100.00
11114;BME280;5610;52.154;9.198;2022-11-15T04:31:15;100121.84;;;12.31;100.00
11114;BME280;5610;52.154;9.198;2022-11-15T04:34:19;100132.78;;;12.40;100.00
11114;BME280;5610;52.154;9.198;2022-11-15T04:37:24;100127.63;;;12.25;100.00
11114;BME280;5610;52.154;9.198;2022-11-15T04:40:29;100128.75;;;12.23;100.00
11114;BME280;5610;52.154;9.198;2022-11-15T04:43:34;100128.75;;;12.23;100.00
11114;BME280;5610;52.154;9.198;2022-11-15T04:46:38;100129.94;;;12.19;100.00
11114;BME280;5610;52.154;9.198;2022-11-15T04:49:42;100122.44;;;12.24;100.00
11114;BME280;5610;52.154;9.198;2022-11-15T04:52:50;100134.66;;;12.15;100.00
11114;BME280;5610;52.154;9.198;2022-11-15T04:55:57;100136.22;;;12.06;100.00
11114;BME280;5610;52.154;9.198;2022-11-15T04:59:01;100125.63;;;12.05;100.00
11114;BME280;5610;52.154;9.198;2022-11-15T05:02:05;100127.59;;;12.03;100.00
11114;BME280;5610;52.154;9.198;2022-11-15T05:05:10;100126.13;;;11.99;100.00
11114;BME280;5610;52.154;9.198;2022-11-15T05:08:13;100129.06;;;12.07;100.00
11114;BME280;5610;52.154;9.198;2022-11-15T05:11:18;100128.22;;;12.06;100.00
11114;BME280;5610;52.154;9.198;2022-11-15T05:14:23;100119.75;;;12.13;100.00
11114;BME280;5610;52.154;9.198;2022-11-15T05:17:27;100122.88;;;12.18;100.00
11114;BME280;5610;52.154;9.198;2022-11-15T05:20:31;100127.19;;;12.31;100.00
11114;BME280;5610;52.154;9.198;2022-11-15T05:23:35;100126.84;;;12.36;100.00
11114;BME280;5610;52.154;9.198;2022-11-15T05:26:41;100121.41;;;12.49;100.00
11114;BME280;5610;52.154;9.198;2022-11-15T05:29:45;100119.78;;;12.46;100.00
11114;BME280;5610;52.154;9.198;2022-11-15T05:32:50;100122.13;;;12.51;100.00
11114;BME280;5610;52.154;9.198;2022-11-15T05:35:57;100124.53;;;12.54;100.00
11114;BME280;5610;52.154;9.198;2022-11-15T05:39:05;100124.19;;;12.58;100.00
11114;BME280;5610;52.154;9.198;2022-11-15T05:42:12;100116.03;;;12.60;100.00
11114;BME280;5610;52.154;9.198;2022-11-15T05:45:17;100117.63;;;12.74;100.00
11114;BME280;5610;52.154;9.198;2022-11-15T05:48:21;100121.53;;;12.81;100.00
11114;BME280;5610;52.154;9.198;2022-11-15T05:51:27;100113.88;;;12.87;100.00
11114;BME280;5610;52.154;9.198;2022-11-15T05:54:33;100106.84;;;12.98;100.00
11114;BME280;5610;52.154;9.198;2022-11-15T05:57:39;100110.47;;;13.19;100.00
11114;BME280;5610;52.154;9.198;2022-11-15T06:00:44;100099.53;;;13.22;100.00
11114;BME280;5610;52.154;9.198;2022-11-15T06:03:48;100098.06;;;13.29;100.00
11114;BME280;5610;52.154;9.198;2022-11-15T06:06:52;100096.50;;;13.27;100.00
11114;BME280;5610;52.154;9.198;2022-11-15T06:09:56;100099.03;;;13.28;100.00
11114;BME280;5610;52.154;9.198;2022-11-15T06:13:03;100102.19;;;13.22;100.00
11114;BME280;5610;52.154;9.198;2022-11-15T06:16:08;100097.81;;;13.10;100.00
11114;BME280;5610;52.154;9.198;2022-11-15T06:19:12;100089.69;;;13.11;100.00
11114;BME280;5610;52.154;9.198;2022-11-15T06:22:16;100095.63;;;13.15;100.00
11114;BME280;5610;52.154;9.198;2022-11-15T06:25:20;100094.53;;;13.06;100.00
11114;BME280;5610;52.154;9.198;2022-11-15T06:28:27;100105.72;;;13.11;100.00
11114;BME280;5610;52.154;9.198;2022-11-15T06:31:33;100095.75;;;13.02;100.00
11114;BME280;5610;52.154;9.198;2022-11-15T06:34:37;100106.22;;;12.94;100.00
11114;BME280;5610;52.154;9.198;2022-11-15T06:37:41;100107.44;;;12.90;100.00
11114;BME280;5610;52.154;9.198;2022-11-15T06:40:45;100107.53;;;12.88;100.00
11114;BME280;5610;52.154;9.198;2022-11-15T06:43:51;100102.31;;;12.87;100.00
11114;BME280;5610;52.154;9.198;2022-11-15T06:46:54;100112.66;;;12.80;100.00
11114;BME280;5610;52.154;9.198;2022-11-15T06:49:59;100113.53;;;12.70;100.00
11114;BME280;5610;52.154;9.198;2022-11-15T06:53:03;100116.28;;;12.68;100.00
11114;BME280;5610;52.154;9.198;2022-11-15T06:56:08;100118.97;;;12.68;100.00
11114;BME280;5610;52.154;9.198;2022-11-15T06:59:14;100124.31;;;12.57;100.00
11114;BME280;5610;52.154;9.198;2022-11-15T07:02:18;100126.13;;;12.45;100.00
11114;BME280;5610;52.154;9.198;2022-11-15T07:05:22;100124.28;;;12.46;100.00
11114;BME280;5610;52.154;9.198;2022-11-15T07:08:27;100124.66;;;12.41;100.00
11114;BME280;5610;52.154;9.198;2022-11-15T07:11:32;100123.69;;;12.42;100.00
11114;BME280;5610;52.154;9.198;2022-11-15T07:14:38;100118.72;;;12.49;100.00
11114;BME280;5610;52.154;9.198;2022-11-15T07:17:42;100123.09;;;12.50;100.00
11114;BME280;5610;52.154;9.198;2022-11-15T07:20:46;100127.59;;;12.49;100.00
11114;BME280;5610;52.154;9.198;2022-11-15T07:23:51;100123.06;;;12.38;100.00
11114;BME280;5610;52.154;9.198;2022-11-15T07:26:55;100136.44;;;12.50;100.00
11114;BME280;5610;52.154;9.198;2022-11-15T07:30:01;100133.91;;;12.48;100.00
11114;BME280;5610;52.154;9.198;2022-11-15T07:33:05;100130.25;;;12.49;100.00
11114;BME280;5610;52.154;9.198;2022-11-15T07:36:09;100125.03;;;12.48;100.00
11114;BME280;5610;52.154;9.198;2022-11-15T07:39:14;100128.56;;;12.48;100.00
11114;BME280;5610;52.154;9.198;2022-11-15T07:42:19;100130.50;;;12.57;100.00
11114;BME280;5610;52.154;9.198;2022-11-15T07:45:43;100140.13;;;12.71;100.00
11114;BME280;5610;52.154;9.198;2022-11-15T07:48:48;100138.66;;;12.89;100.00
11114;BME280;5610;52.154;9.198;2022-11-15T07:51:52;100137.94;;;12.99;100.00
11114;BME280;5610;52.154;9.198;2022-11-15T07:54:56;100132.69;;;13.08;100.00
11114;BME280;5610;52.154;9.198;2022-11-15T07:58:01;100132.69;;;13.08;100.00
11114;BME280;5610;52.154;9.198;2022-11-15T08:01:08;100138.66;;;13.01;100.00
11114;BME280;5610;52.154;9.198;2022-11-15T08:04:13;100139.97;;;13.17;100.00
11114;BME280;5610;52.154;9.198;2022-11-15T08:07:17;100144.97;;;13.44;100.00
11114;BME280;5610;52.154;9.198;2022-11-15T08:10:22;100142.56;;;13.73;100.00
11114;BME280;5610;52.154;9.198;2022-11-15T08:13:26;100146.44;;;14.13;100.00
11114;BME280;5610;52.154;9.198;2022-11-15T08:16:31;100148.13;;;14.46;100.00
11114;BME280;5610;52.154;9.198;2022-11-15T08:19:35;100136.72;;;14.74;100.00
11114;BME280;5610;52.154;9.198;2022-11-15T08:22:40;100150.28;;;15.13;100.00
11114;BME280;5610;52.154;9.198;2022-11-15T08:25:44;100137.78;;;15.33;100.00
11114;BME280;5610;52.154;9.198;2022-11-15T08:28:48;100137.63;;;15.65;100.00
11114;BME280;5610;52.154;9.198;2022-11-15T08:31:55;100133.41;;;15.82;100.00
11114;BME280;5610;52.154;9.198;2022-11-15T08:34:59;100127.31;;;15.99;100.00
11114;BME280;5610;52.154;9.198;2022-11-15T08:38:03;100136.66;;;15.95;100.00
11114;BME280;5610;52.154;9.198;2022-11-15T08:41:11;100125.06;;;16.14;100.00
11114;BME280;5610;52.154;9.198;2022-11-15T08:44:16;100127.91;;;15.93;100.00
11114;BME280;5610;52.154;9.198;2022-11-15T08:47:22;100125.31;;;16.20;100.00
11114;BME280;5610;52.154;9.198;2022-11-15T08:50:26;100120.81;;;16.21;100.00
11114;BME280;5610;52.154;9.198;2022-11-15T08:53:30;100118.81;;;16.23;100.00
11114;BME280;5610;52.154;9.198;2022-11-15T08:56:35;100112.88;;;16.29;100.00
11114;BME280;5610;52.154;9.198;2022-11-15T08:59:38;100117.88;;;16.61;100.00
11114;BME280;5610;52.154;9.198;2022-11-15T09:02:44;100120.16;;;16.66;100.00
11114;BME280;5610;52.154;9.198;2022-11-15T09:05:48;100124.16;;;16.33;100.00
11114;BME280;5610;52.154;9.198;2022-11-15T09:08:53;100112.16;;;16.84;100.00
11114;BME280;5610;52.154;9.198;2022-11-15T09:11:57;100120.00;;;17.14;100.00
11114;BME280;5610;52.154;9.198;2022-11-15T09:15:01;100130.69;;;16.96;100.00
11114;BME280;5610;52.154;9.198;2022-11-15T09:18:07;100128.38;;;17.56;100.00
11114;BME280;5610;52.154;9.198;2022-11-15T09:21:11;100115.59;;;17.86;100.00
11114;BME280;5610;52.154;9.198;2022-11-15T09:24:16;100118.03;;;17.79;100.00
11114;BME280;5610;52.154;9.198;2022-11-15T09:27:20;100119.31;;;17.57;100.00
11114;BME280;5610;52.154;9.198;2022-11-15T09:30:25;100117.56;;;18.02;100.00
11114;BME280;5610;52.154;9.198;2022-11-15T09:33:30;100124.03;;;18.09;98.92
11114;BME280;5610;52.154;9.198;2022-11-15T09:36:35;100129.53;;;17.99;95.38
11114;BME280;5610;52.154;9.198;2022-11-15T09:39:39;100140.38;;;18.69;93.70
11114;BME280;5610;52.154;9.198;2022-11-15T09:42:51;100130.53;;;19.62;82.69
11114;BME280;5610;52.154;9.198;2022-11-15T09:46:06;100119.59;;;21.64;71.27
11114;BME280;5610;52.154;9.198;2022-11-15T09:49:23;100122.22;;;23.23;61.76
11114;BME280;5610;52.154;9.198;2022-11-15T09:52:23;100121.94;;;24.05;57.08
11114;BME280;5610;52.154;9.198;2022-11-15T09:55:10;100110.03;;;24.06;55.80
11114;BME280;5610;52.154;9.198;2022-11-15T09:58:03;100111.56;;;24.93;53.20
11114;BME280;5610;52.154;9.198;2022-11-15T10:00:51;100097.91;;;27.01;48.58
11114;BME280;5610;52.154;9.198;2022-11-15T10:03:39;100101.16;;;28.88;44.79
11114;BME280;5610;52.154;9.198;2022-11-15T10:06:27;100095.59;;;29.49;42.77
11114;BME280;5610;52.154;9.198;2022-11-15T10:09:15;100101.47;;;30.67;40.23
11114;BME280;5610;52.154;9.198;2022-11-15T10:12:02;100083.09;;;31.31;39.12
11114;BME280;5610;52.154;9.198;2022-11-15T10:14:49;100085.22;;;32.31;37.61
11114;BME280;5610;52.154;9.198;2022-11-15T10:17:55;100078.03;;;32.13;36.78
11114;BME280;5610;52.154;9.198;2022-11-15T10:20:48;100071.78;;;30.92;38.67
11114;BME280;5610;52.154;9.198;2022-11-15T10:23:34;100068.25;;;31.60;37.67
11114;BME280;5610;52.154;9.198;2022-11-15T10:26:20;100069.19;;;31.66;36.85
11114;BME280;5610;52.154;9.198;2022-11-15T10:29:06;100059.44;;;32.37;36.44
11114;BME280;5610;52.154;9.198;2022-11-15T10:31:51;100049.75;;;33.56;35.28
11114;BME280;5610;52.154;9.198;2022-11-15T10:34:37;100046.88;;;33.73;33.92
11114;BME280;5610;52.154;9.198;2022-11-15T10:37:28;100043.63;;;33.81;34.37
11114;BME280;5610;52.154;9.198;2022-11-15T10:40:18;100044.91;;;32.80;34.83
11114;BME280;5610;52.154;9.198;2022-11-15T10:43:10;100039.34;;;32.97;34.87
11114;BME280;5610;52.154;9.198;2022-11-15T10:46:16;100036.75;;;30.87;36.34
11114;BME280;5610;52.154;9.198;2022-11-15T10:49:13;100036.53;;;31.17;36.68
11114;BME280;5610;52.154;9.198;2022-11-15T10:52:00;100027.91;;;30.62;37.62
11114;BME280;5610;52.154;9.198;2022-11-15T10:54:49;100033.53;;;30.44;37.61
11114;BME280;5610;52.154;9.198;2022-11-15T10:57:38;100021.28;;;29.51;38.05
11114;BME280;5610;52.154;9.198;2022-11-15T11:00:30;100017.22;;;30.07;37.91
11114;BME280;5610;52.154;9.198;2022-11-15T11:03:29;100023.72;;;29.41;38.50
11114;BME280;5610;52.154;9.198;2022-11-15T11:06:16;100009.44;;;27.97;40.04
11114;BME280;5610;52.154;9.198;2022-11-15T11:09:03;100013.16;;;28.53;40.40
11114;BME280;5610;52.154;9.198;2022-11-15T11:11:51;100004.19;;;28.82;39.81
11114;BME280;5610;52.154;9.198;2022-11-15T11:14:38;99995.16;;;30.14;37.61
11114;BME280;5610;52.154;9.198;2022-11-15T11:17:32;99997.31;;;30.35;37.38
11114;BME280;5610;52.154;9.198;2022-11-15T11:20:24;99979.81;;;31.28;36.49
11114;BME280;5610;52.154;9.198;2022-11-15T11:23:21;99988.00;;;31.11;36.62
11114;BME280;5610;52.154;9.198;2022-11-15T11:26:18;99994.69;;;30.52;37.14
11114;BME280;5610;52.154;9.198;2022-11-15T11:29:20;99995.19;;;29.72;38.21
11114;BME280;5610;52.154;9.198;2022-11-15T11:32:23;99990.66;;;28.01;39.94
11114;BME280;5610;52.154;9.198;2022-11-15T11:35:13;99989.03;;;27.61;40.83
11114;BME280;5610;52.154;9.198;2022-11-15T11:38:11;99995.34;;;28.80;39.56
11114;BME280;5610;52.154;9.198;2022-11-15T11:41:06;99986.59;;;28.53;39.24
11114;BME280;5610;52.154;9.198;2022-11-15T11:44:02;99981.97;;;28.90;39.13
11114;BME280;5610;52.154;9.198;2022-11-15T11:46:55;99976.66;;;30.32;37.84
11114;BME280;5610;52.154;9.198;2022-11-15T11:49:46;99969.22;;;31.99;35.71
11114;BME280;5610;52.154;9.198;2022-11-15T11:52:38;99966.00;;;33.50;33.43
11114;BME280;5610;52.154;9.198;2022-11-15T11:55:29;99969.94;;;33.59;33.79
11114;BME280;5610;52.154;9.198;2022-11-15T11:58:19;99954.88;;;34.04;32.92
11114;BME280;5610;52.154;9.198;2022-11-15T12:01:11;99960.88;;;33.37;33.04
11114;BME280;5610;52.154;9.198;2022-11-15T12:04:01;99948.91;;;34.23;32.21
11114;BME280;5610;52.154;9.198;2022-11-15T12:06:54;99948.25;;;33.41;33.15
11114;BME280;5610;52.154;9.198;2022-11-15T12:09:44;99950.72;;;33.16;33.37
11114;BME280;5610;52.154;9.198;2022-11-15T12:12:46;99948.06;;;33.85;32.58
11114;BME280;5610;52.154;9.198;2022-11-15T12:15:38;99936.19;;;31.82;34.67
11114;BME280;5610;52.154;9.198;2022-11-15T12:18:25;99938.97;;;33.03;33.44
11114;BME280;5610;52.154;9.198;2022-11-15T12:21:15;99943.81;;;33.18;33.11
11114;BME280;5610;52.154;9.198;2022-11-15T12:24:06;99929.72;;;35.36;31.13
11114;BME280;5610;52.154;9.198;2022-11-15T12:26:57;99921.91;;;37.10;29.84
11114;BME280;5610;52.154;9.198;2022-11-15T12:29:47;99916.38;;;37.83;28.83
11114;BME280;5610;52.154;9.198;2022-11-15T12:32:37;99914.16;;;38.38;27.75
11114;BME280;5610;52.154;9.198;2022-11-15T12:35:28;99896.75;;;39.13;27.00
11114;BME280;5610;52.154;9.198;2022-11-15T12:38:54;99896.03;;;38.17;27.92
11114;BME280;5610;52.154;9.198;2022-11-15T12:41:42;99890.22;;;36.62;29.12
11114;BME280;5610;52.154;9.198;2022-11-15T12:44:58;99886.19;;;37.72;27.92
11114;BME280;5610;52.154;9.198;2022-11-15T12:47:44;99879.72;;;37.81;27.82
11114;BME280;5610;52.154;9.198;2022-11-15T12:50:53;99875.59;;;37.74;28.18
11114;BME280;5610;52.154;9.198;2022-11-15T12:53:38;99872.44;;;37.85;27.95
11114;BME280;5610;52.154;9.198;2022-11-15T12:56:23;99871.16;;;36.45;29.38
11114;BME280;5610;52.154;9.198;2022-11-15T12:59:10;99872.09;;;36.10;29.70
11114;BME280;5610;52.154;9.198;2022-11-15T13:01:59;99875.69;;;35.08;30.01
11114;BME280;5610;52.154;9.198;2022-11-15T13:04:45;99866.38;;;36.61;28.76
11114;BME280;5610;52.154;9.198;2022-11-15T13:07:56;99858.72;;;37.36;28.01
11114;BME280;5610;52.154;9.198;2022-11-15T13:10:42;99849.38;;;34.28;31.21
11114;BME280;5610;52.154;9.198;2022-11-15T13:13:43;99855.63;;;34.55;30.76
11114;BME280;5610;52.154;9.198;2022-11-15T13:16:30;99842.59;;;34.51;31.19
11114;BME280;5610;52.154;9.198;2022-11-15T13:19:24;99845.03;;;32.06;33.39
11114;BME280;5610;52.154;9.198;2022-11-15T13:22:10;99845.75;;;28.54;37.89
11114;BME280;5610;52.154;9.198;2022-11-15T13:25:19;99843.06;;;25.90;42.46
11114;BME280;5610;52.154;9.198;2022-11-15T13:28:11;99839.47;;;23.94;46.47
11114;BME280;5610;52.154;9.198;2022-11-15T13:31:18;99829.28;;;24.09;47.31
11114;BME280;5610;52.154;9.198;2022-11-15T13:34:17;99836.97;;;23.93;47.38
11114;BME280;5610;52.154;9.198;2022-11-15T13:37:12;99832.56;;;23.36;48.62
11114;BME280;5610;52.154;9.198;2022-11-15T13:40:33;99833.06;;;22.60;49.38
11114;BME280;5610;52.154;9.198;2022-11-15T13:43:27;99827.13;;;22.06;51.36
11114;BME280;5610;52.154;9.198;2022-11-15T13:46:17;99840.31;;;21.50;52.50
11114;BME280;5610;52.154;9.198;2022-11-15T13:49:04;99840.38;;;20.11;56.97
11114;BME280;5610;52.154;9.198;2022-11-15T13:51:53;99843.25;;;19.13;60.73
11114;BME280;5610;52.154;9.198;2022-11-15T13:54:40;99836.72;;;18.49;66.84
11114;BME280;5610;52.154;9.198;2022-11-15T13:57:38;99843.47;;;18.02;72.92
11114;BME280;5610;52.154;9.198;2022-11-15T14:00:32;99841.94;;;17.04;82.78
11114;BME280;5610;52.154;9.198;2022-11-15T14:03:19;99840.06;;;16.69;89.63
11114;BME280;5610;52.154;9.198;2022-11-15T14:06:08;99841.91;;;16.78;92.58
11114;BME280;5610;52.154;9.198;2022-11-15T14:09:16;99834.59;;;16.70;94.04
11114;BME280;5610;52.154;9.198;2022-11-15T14:12:29;99825.66;;;16.88;96.02
11114;BME280;5610;52.154;9.198;2022-11-15T14:15:25;99824.50;;;16.90;95.88
11114;BME280;5610;52.154;9.198;2022-11-15T14:18:42;99829.38;;;16.87;97.08
11114;BME280;5610;52.154;9.198;2022-11-15T14:21:28;99820.66;;;16.75;98.22
11114;BME280;5610;52.154;9.198;2022-11-15T14:24:13;99832.44;;;16.74;99.64
11114;BME280;5610;52.154;9.198;2022-11-15T14:27:18;99830.69;;;16.55;100.00
11114;BME280;5610;52.154;9.198;2022-11-15T14:30:04;99830.81;;;16.63;100.00
11114;BME280;5610;52.154;9.198;2022-11-15T14:32:50;99824.09;;;16.67;100.00
11114;BME280;5610;52.154;9.198;2022-11-15T14:35:38;99827.25;;;16.63;100.00
11114;BME280;5610;52.154;9.198;2022-11-15T14:38:23;99814.34;;;16.66;100.00
11114;BME280;5610;52.154;9.198;2022-11-15T14:41:19;99815.13;;;16.77;100.00
11114;BME280;5610;52.154;9.198;2022-11-15T14:44:05;99800.38;;;16.81;100.00
11114;BME280;5610;52.154;9.198;2022-11-15T14:46:51;99808.53;;;16.89;100.00
11114;BME280;5610;52.154;9.198;2022-11-15T14:49:36;99801.84;;;16.75;100.00
11114;BME280;5610;52.154;9.198;2022-11-15T14:52:28;99799.88;;;16.67;100.00
11114;BME280;5610;52.154;9.198;2022-11-15T14:55:17;99800.34;;;16.45;100.00
11114;BME280;5610;52.154;9.198;2022-11-15T14:58:04;99795.34;;;16.32;100.00
11114;BME280;5610;52.154;9.198;2022-11-15T15:00:51;99786.88;;;16.27;100.00
11114;BME280;5610;52.154;9.198;2022-11-15T15:03:36;99794.59;;;16.12;100.00
11114;BME280;5610;52.154;9.198;2022-11-15T15:06:22;99787.53;;;16.11;100.00
11114;BME280;5610;52.154;9.198;2022-11-15T15:09:09;99784.78;;;16.03;100.00
11114;BME280;5610;52.154;9.198;2022-11-15T15:11:54;99784.38;;;15.98;100.00
11114;BME280;5610;52.154;9.198;2022-11-15T15:14:39;99788.38;;;15.94;100.00
11114;BME280;5610;52.154;9.198;2022-11-15T15:17:24;99791.41;;;15.81;100.00
11114;BME280;5610;52.154;9.198;2022-11-15T15:20:10;99796.56;;;15.65;100.00
11114;BME280;5610;52.154;9.198;2022-11-15T15:22:55;99796.41;;;15.67;100.00
11114;BME280;5610;52.154;9.198;2022-11-15T15:25:42;99793.59;;;15.58;100.00
11114;BME280;5610;52.154;9.198;2022-11-15T15:28:27;99787.13;;;15.42;100.00
11114;BME280;5610;52.154;9.198;2022-11-15T15:31:13;99786.91;;;15.25;100.00
11114;BME280;5610;52.154;9.198;2022-11-15T15:33:58;99795.13;;;15.04;100.00
11114;BME280;5610;52.154;9.198;2022-11-15T15:36:43;99782.03;;;14.82;100.00
11114;BME280;5610;52.154;9.198;2022-11-15T15:39:29;99777.94;;;14.59;100.00
11114;BME280;5610;52.154;9.198;2022-11-15T15:42:17;99769.63;;;14.62;100.00
11114;BME280;5610;52.154;9.198;2022-11-15T15:45:03;99767.91;;;14.70;100.00
11114;BME280;5610;52.154;9.198;2022-11-15T15:47:49;99765.66;;;14.66;100.00
11114;BME280;5610;52.154;9.198;2022-11-15T15:50:35;99755.09;;;14.54;100.00
11114;BME280;5610;52.154;9.198;2022-11-15T15:53:21;99759.44;;;14.65;100.00
11114;BME280;5610;52.154;9.198;2022-11-15T15:56:06;99750.56;;;14.65;100.00
11114;BME280;5610;52.154;9.198;2022-11-15T15:58:53;99754.94;;;14.56;100.00
11114;BME280;5610;52.154;9.198;2022-11-15T16:01:39;99752.41;;;14.54;100.00